This is the latest recevied weather packets stored in our database for station/object E22ZMG-3. If no packets are shown the sender has not sent any weather packets the latest 10 day(s).
| Time | Temp. | Humidity | Pressure | Rain* | Wind** | Luminosity | Snow |
|---|---|---|---|---|---|---|---|
| 1777952662 | 35.56° C | 46% | 979 hPa | - | - | 0 W/m² | - |
| 1777952037 | 34.44° C | 48% | 979 hPa | - | - | 0 W/m² | - |
| 1777951413 | 34.44° C | 49% | 980 hPa | - | - | 0 W/m² | - |
| 1777950789 | 34.44° C | 49% | 980 hPa | - | - | 0 W/m² | - |
| 1777950164 | 35° C | 49% | 980 hPa | - | - | 0 W/m² | - |
| 1777949540 | 33.89° C | 51% | 980 hPa | - | - | 0 W/m² | - |
| 1777948916 | 33.89° C | 49% | 980 hPa | - | - | 0 W/m² | - |
| 1777948292 | 33.89° C | 51% | 980 hPa | - | - | 0 W/m² | - |
| 1777947667 | 33.89° C | 50% | 980 hPa | - | - | 0 W/m² | - |
| 1777947043 | 33.33° C | 51% | 980 hPa | - | - | 0 W/m² | - |
| 1777946419 | 33.33° C | 51% | 979 hPa | - | - | 0 W/m² | - |
| 1777945794 | 32.22° C | 54% | 979 hPa | - | - | 0 W/m² | - |
| 1777945170 | 33.33° C | 52% | 979 hPa | - | - | 0 W/m² | - |
| 1777944546 | 32.22° C | 55% | 979 hPa | - | - | 0 W/m² | - |
| 1777943922 | 32.78° C | 55% | 979 hPa | - | - | 0 W/m² | - |
| 1777943298 | 32.22° C | 56% | 979 hPa | - | - | 0 W/m² | - |
| 1777942673 | 32.78° C | 54% | 979 hPa | - | - | 0 W/m² | - |
| 1777942049 | 31.67° C | 57% | 979 hPa | - | - | 0 W/m² | - |
| 1777941425 | 31.11° C | 58% | 979 hPa | - | - | 0 W/m² | - |
| 1777940800 | 31.11° C | 59% | 979 hPa | - | - | 0 W/m² | - |
| 1777940176 | 30.56° C | 61% | 979 hPa | - | - | 0 W/m² | - |
| 1777939551 | 31.11° C | 58% | 979 hPa | - | - | 0 W/m² | - |
| 1777938927 | 30.56° C | 61% | 979 hPa | - | - | 0 W/m² | - |
| 1777938303 | 31.11° C | 59% | 978 hPa | - | - | 0 W/m² | - |
| 1777937679 | 31.11° C | 60% | 978 hPa | - | - | 0 W/m² | - |
* Rain since midnight (hover to see other rain measurements)
** Current wind speed in m/s (hover to see current wind gust speed)